Time;durP1;ratioP1;P1;durP2;ratioP2;P2;SDS_P1;SDS_P2;PMS_P1;PMS_P2;Temp;Humidity;BMP_temperature;BMP_pressure;BME280_temperature;BME280_humidity;BME280_pressure;Samples;Min_cycle;Max_cycle;Signal;HPM_P1;HPM_P2
2023/03/21 00:01:58;;;;;;;34.70;19.80;;;;;;;4.04;77.44;98575.93;105636;1254;61241;-24
2023/03/21 00:04:28;;;;;;;30.00;14.80;;;;;;;3.97;78.11;98572.61;105701;1259;61864;-24
2023/03/21 00:07:11;;;;;;;32.70;18.00;;;;;;;4.62;76.96;98570.59;105863;1254;75312;-24
2023/03/21 00:09:40;;;;;;;39.60;20.30;;;;;;;4.94;75.61;98568.48;105696;1255;76189;-23
2023/03/21 00:12:10;;;;;;;37.00;19.30;;;;;;;4.94;75.15;98564.20;105705;1255;74140;-23
2023/03/21 00:14:40;;;;;;;37.50;20.30;;;;;;;4.76;75.08;98564.55;105776;1257;61735;-24
2023/03/21 00:17:09;;;;;;;36.50;21.10;;;;;;;4.48;75.85;98564.23;105604;1254;61045;-24
2023/03/21 00:19:40;;;;;;;34.10;20.40;;;;;;;4.24;76.85;98558.88;105622;1254;74015;-24
2023/03/21 00:22:08;;;;;;;41.10;21.60;;;;;;;4.03;77.80;98556.60;105569;1254;76143;-24
2023/03/21 00:24:37;;;;;;;26.70;14.70;;;;;;;3.89;78.72;98558.65;105531;1254;74062;-24
2023/03/21 00:27:06;;;;;;;28.70;16.20;;;;;;;4.41;78.05;98561.92;105541;1254;61754;-24
2023/03/21 00:29:55;;;;;;;34.90;19.60;;;;;;;5.00;75.72;98561.25;105557;1257;61616;-24
2023/03/21 00:32:25;;;;;;;31.40;19.30;;;;;;;5.03;75.07;98564.68;105815;1254;75352;-24
2023/03/21 00:34:54;;;;;;;33.30;19.40;;;;;;;4.92;75.17;98561.45;105551;1254;75783;-24
2023/03/21 00:37:47;;;;;;;33.90;19.70;;;;;;;4.72;75.12;98558.95;105645;1254;74360;-24
2023/03/21 00:40:16;;;;;;;34.00;19.30;;;;;;;4.48;75.78;98560.67;105709;1259;61179;-24
2023/03/21 00:42:58;;;;;;;34.90;19.30;;;;;;;4.25;76.64;98557.48;105823;1255;62275;-23
2023/03/21 00:45:27;;;;;;;31.00;18.70;;;;;;;4.06;77.70;98550.57;105696;1258;75390;-23
2023/03/21 00:47:56;;;;;;;22.30;12.30;;;;;;;3.98;78.37;98554.45;105579;1254;75897;-24
2023/03/21 00:50:29;;;;;;;29.00;15.00;;;;;;;4.57;77.74;98560.05;105510;1254;74081;-24
2023/03/21 00:52:59;;;;;;;34.20;17.20;;;;;;;5.23;75.60;98563.16;105481;1254;61867;-24
2023/03/21 00:55:27;;;;;;;29.90;16.60;;;;;;;5.42;74.80;98565.14;105579;1257;61704;-24
2023/03/21 00:57:56;;;;;;;35.20;18.60;;;;;;;5.28;74.36;98562.48;105527;1254;75334;-24
2023/03/21 01:00:30;;;;;;;34.50;18.90;;;;;;;5.04;74.82;98554.43;105553;1254;76197;-23
2023/03/21 01:03:06;;;;;;;34.00;19.90;;;;;;;4.90;75.43;98556.54;105520;1254;74471;-24
2023/03/21 01:06:05;;;;;;;31.10;18.40;;;;;;;4.73;75.99;98551.80;105597;1254;61167;-24
2023/03/21 01:08:36;;;;;;;30.60;19.20;;;;;;;4.61;76.28;98551.56;105856;1254;61170;-24
2023/03/21 01:11:22;;;;;;;25.70;13.10;;;;;;;4.57;76.54;98548.57;104129;1254;2032085;-24
2023/03/21 01:13:51;;;;;;;29.50;14.60;;;;;;;5.23;76.23;98544.27;105591;1258;75816;-24
2023/03/21 01:16:35;;;;;;;28.30;15.20;;;;;;;5.93;74.29;98544.96;105552;1254;74256;-24
2023/03/21 01:19:04;;;;;;;34.20;19.40;;;;;;;5.95;72.70;98545.67;105528;1257;62340;-24
2023/03/21 01:23:56;;;;;;;32.60;19.30;;;;;;;5.63;73.49;98539.11;102684;1295;600789;-25
2023/03/21 01:26:24;;;;;;;32.50;18.90;;;;;;;5.37;74.19;98537.11;104869;1267;62220;-24
2023/03/21 01:28:53;;;;;;;34.70;19.50;;;;;;;5.13;75.20;98534.73;104883;1267;61753;-26
2023/03/21 01:31:21;;;;;;;34.20;18.40;;;;;;;4.97;75.82;98531.31;104884;1269;73846;-26
2023/03/21 01:33:50;;;;;;;27.60;14.90;;;;;;;4.86;76.57;98532.08;104924;1267;75346;-23
2023/03/21 01:36:20;;;;;;;32.20;17.20;;;;;;;5.34;75.82;98527.67;105100;1266;74220;-24
2023/03/21 01:38:53;;;;;;;32.90;18.10;;;;;;;5.86;73.68;98531.18;103616;1268;61135;-24
2023/03/21 01:41:26;;;;;;;34.00;18.40;;;;;;;5.86;73.14;98529.30;105188;1263;61157;-24
2023/03/21 01:44:17;;;;;;;29.20;17.50;;;;;;;5.72;73.56;98524.02;105134;1264;73949;-24
2023/03/21 01:46:51;;;;;;;33.20;18.80;;;;;;;5.55;74.03;98516.92;105032;1269;75660;-24
2023/03/21 01:49:48;;;;;;;34.60;19.50;;;;;;;5.37;74.54;98513.66;105242;1266;74525;-24
2023/03/21 01:52:48;;;;;;;26.90;15.80;;;;;;;5.28;74.53;98517.11;104839;1272;61250;-25
2023/03/21 01:55:24;;;;;;;30.30;17.90;;;;;;;5.16;74.61;98518.03;105252;1260;61220;-24
2023/03/21 01:57:57;;;;;;;26.20;13.30;;;;;;;5.07;75.11;98518.46;105275;1265;74697;-24
2023/03/21 02:00:42;;;;;;;25.10;13.30;;;;;;;5.71;74.93;98520.83;105281;1260;75907;-24
2023/03/21 02:03:20;;;;;;;28.20;14.20;;;;;;;6.34;73.31;98519.52;105250;1263;73884;-24
2023/03/21 02:06:42;;;;;;;27.30;16.20;;;;;;;6.42;72.92;98519.50;105180;1265;61906;-24
2023/03/21 02:09:33;;;;;;;27.00;16.50;;;;;;;6.19;72.62;98521.81;105271;1266;61824;-24
2023/03/21 02:12:07;;;;;;;27.90;17.50;;;;;;;5.93;72.84;98524.65;105123;1263;74804;-24
2023/03/21 02:14:38;;;;;;;27.90;16.80;;;;;;;5.64;73.44;98523.59;104828;1263;76230;-24
2023/03/21 02:17:33;;;;;;;32.20;17.00;;;;;;;5.33;74.65;98520.02;105504;1262;73264;-24
2023/03/21 02:20:41;;;;;;;33.30;19.20;;;;;;;5.13;75.38;98519.61;105472;1255;61214;-24
2023/03/21 02:23:32;;;;;;;22.40;13.30;;;;;;;5.13;75.45;98517.89;105536;1257;61135;-24
2023/03/21 02:26:09;;;;;;;29.30;14.60;;;;;;;5.99;74.75;98514.94;105615;1257;74739;-24
2023/03/21 02:28:39;;;;;;;24.70;15.30;;;;;;;6.38;72.75;98514.23;105452;1262;75911;-24
2023/03/21 02:31:39;;;;;;;30.50;18.00;;;;;;;6.25;72.30;98515.34;105367;1259;73790;-24
2023/03/21 02:34:17;;;;;;;31.70;19.30;;;;;;;5.89;72.76;98520.98;105585;1262;61345;-24
2023/03/21 02:36:50;;;;;;;36.00;20.70;;;;;;;5.55;73.24;98521.05;105375;1261;61833;-24
2023/03/21 02:39:30;;;;;;;31.10;19.50;;;;;;;5.26;74.03;98520.97;105575;1257;75270;-24
2023/03/21 02:42:12;;;;;;;32.80;19.60;;;;;;;5.00;74.46;98516.38;105492;1256;75674;-24
2023/03/21 02:44:45;;;;;;;36.70;20.20;;;;;;;4.76;74.81;98520.85;105443;1257;73595;-24
2023/03/21 02:47:25;;;;;;;23.90;13.20;;;;;;;4.61;75.53;98518.20;105248;1262;61234;-24
2023/03/21 02:50:17;;;;;;;26.50;14.60;;;;;;;5.19;76.09;98522.98;105513;1263;61841;-24
2023/03/21 02:52:46;;;;;;;26.40;16.00;;;;;;;5.88;74.68;98524.98;105534;1257;74519;-24
2023/03/21 02:55:18;;;;;;;28.00;17.00;;;;;;;5.88;73.89;98526.73;105287;1262;75221;-24
2023/03/21 02:57:54;;;;;;;32.60;18.60;;;;;;;5.71;73.87;98526.16;105266;1257;74123;-24
2023/03/21 03:00:29;;;;;;;27.80;17.00;;;;;;;5.57;74.25;98523.02;105324;1262;61277;-24
2023/03/21 03:02:59;;;;;;;27.40;16.30;;;;;;;5.43;74.47;98522.61;105471;1256;61179;-24
2023/03/21 03:05:54;;;;;;;26.20;16.70;;;;;;;5.33;74.21;98522.92;105409;1257;74314;-24
2023/03/21 03:08:31;;;;;;;27.90;16.40;;;;;;;5.24;74.16;98520.42;105158;1263;75873;-25
2023/03/21 03:11:18;;;;;;;22.80;12.10;;;;;;;5.20;74.50;98521.06;105318;1261;74167;-25
2023/03/21 03:14:05;;;;;;;19.50;11.70;;;;;;;5.85;74.61;98519.70;105564;1257;61157;-25
2023/03/21 03:17:03;;;;;;;24.10;13.60;;;;;;;6.52;72.18;98520.66;105641;1258;61845;-24
2023/03/21 03:19:34;;;;;;;27.00;15.10;;;;;;;6.55;71.57;98519.96;105539;1262;74702;-24
2023/03/21 03:22:39;;;;;;;25.50;15.40;;;;;;;6.40;71.96;98518.96;105437;1258;75974;-24
2023/03/21 03:25:10;;;;;;;24.80;15.20;;;;;;;6.23;72.61;98519.16;105655;1259;72429;-24
2023/03/21 03:27:55;;;;;;;28.80;16.40;;;;;;;6.03;73.10;98512.59;105658;1258;61844;-23
2023/03/21 03:30:24;;;;;;;27.60;16.80;;;;;;;5.88;73.57;98507.23;105385;1262;61851;-23
2023/03/21 03:33:01;;;;;;;25.70;15.50;;;;;;;5.77;73.90;98511.14;105421;1257;74291;-24
2023/03/21 03:35:29;;;;;;;27.90;16.70;;;;;;;5.65;73.88;98513.33;105467;1257;74718;-24
2023/03/21 03:38:00;;;;;;;25.20;12.50;;;;;;;5.60;74.72;98511.61;105608;1257;74346;-23
2023/03/21 03:40:50;;;;;;;25.30;11.80;;;;;;;6.21;74.87;98512.52;105520;1262;61164;-23
2023/03/21 03:43:45;;;;;;;22.60;14.10;;;;;;;6.91;73.11;98509.15;105584;1263;60952;-24
2023/03/21 03:46:18;;;;;;;27.10;15.40;;;;;;;6.94;72.61;98507.74;105539;1262;73565;-23
2023/03/21 03:48:49;;;;;;;25.60;16.00;;;;;;;6.70;72.47;98507.93;105489;1263;76058;-24
2023/03/21 03:51:26;;;;;;;29.80;17.20;;;;;;;6.50;72.99;98510.30;105632;1257;73108;-24
2023/03/21 03:54:12;;;;;;;30.30;17.20;;;;;;;6.27;73.73;98505.59;105352;1257;62022;-24
2023/03/21 03:56:43;;;;;;;29.30;16.70;;;;;;;6.09;74.30;98510.98;105357;1262;61572;-23
2023/03/21 03:59:18;;;;;;;24.90;16.40;;;;;;;5.96;74.63;98515.48;105550;1257;74567;-24
2023/03/21 04:02:06;;;;;;;24.50;15.30;;;;;;;5.79;75.02;98515.11;105468;1257;74941;-24
2023/03/21 04:04:37;;;;;;;20.50;11.70;;;;;;;5.67;75.57;98512.02;105380;1260;74724;-24
2023/03/21 04:07:06;;;;;;;21.00;12.00;;;;;;;6.18;75.80;98508.58;105288;1257;61931;-24
2023/03/21 04:09:41;;;;;;;19.00;12.10;;;;;;;6.81;74.69;98497.70;105393;1260;62062;-24
2023/03/21 04:12:14;;;;;;;21.00;13.00;;;;;;;6.91;74.34;98497.59;105620;1257;73878;-23
2023/03/21 04:14:53;;;;;;;22.10;14.80;;;;;;;6.75;74.37;98494.11;105593;1257;76180;-23
2023/03/21 04:17:31;;;;;;;25.80;15.30;;;;;;;6.55;74.89;98498.02;105590;1257;74084;-24
2023/03/21 04:20:00;;;;;;;26.80;15.30;;;;;;;6.36;75.51;98499.59;105659;1257;61884;-23
2023/03/21 04:22:40;;;;;;;24.90;14.50;;;;;;;6.16;76.39;98503.25;105611;1260;61076;-23
2023/03/21 04:25:12;;;;;;;21.90;14.00;;;;;;;6.00;76.82;98506.80;105518;1257;74828;-24
2023/03/21 04:27:54;;;;;;;19.50;11.10;;;;;;;5.91;77.15;98506.54;105620;1257;75983;-24
2023/03/21 04:30:45;;;;;;;22.30;11.60;;;;;;;6.61;77.16;98507.95;105620;1257;74219;-24
2023/03/21 04:33:31;;;;;;;23.40;14.20;;;;;;;7.17;75.11;98510.48;105642;1257;62199;-24
2023/03/21 04:35:59;;;;;;;24.20;14.10;;;;;;;7.15;74.05;98512.77;105647;1263;61847;-24
2023/03/21 04:38:32;;;;;;;25.20;14.50;;;;;;;6.92;74.43;98513.10;105628;1257;74437;-24
2023/03/21 04:41:02;;;;;;;26.30;15.40;;;;;;;6.65;75.21;98515.73;105550;1257;76018;-24
2023/03/21 04:43:36;;;;;;;25.00;15.00;;;;;;;6.42;75.99;98513.48;105624;1256;74519;-24
2023/03/21 04:46:06;;;;;;;25.00;14.50;;;;;;;6.22;76.97;98512.51;105487;1257;62027;-23
2023/03/21 04:48:34;;;;;;;26.10;15.60;;;;;;;6.06;77.12;98514.84;105565;1263;62140;-24
2023/03/21 04:51:05;;;;;;;20.50;11.10;;;;;;;5.94;78.45;98514.58;105247;1257;74662;-24
2023/03/21 04:53:37;;;;;;;22.60;11.90;;;;;;;6.46;78.31;98516.63;105312;1257;76172;-23
2023/03/21 04:56:09;;;;;;;19.80;13.10;;;;;;;7.10;76.49;98516.41;105449;1261;74317;-24
2023/03/21 04:58:42;;;;;;;24.70;13.80;;;;;;;7.19;75.56;98516.55;105459;1257;61112;-24
2023/03/21 05:01:13;;;;;;;25.20;14.70;;;;;;;7.07;75.46;98511.10;105466;1257;62616;-23
2023/03/21 05:03:42;;;;;;;24.70;14.80;;;;;;;6.85;75.68;98508.10;105603;1257;73928;-24
2023/03/21 05:06:11;;;;;;;20.70;14.60;;;;;;;6.65;76.51;98506.75;105661;1257;75855;-23
2023/03/21 05:08:40;;;;;;;26.10;15.20;;;;;;;6.50;76.80;98504.94;105685;1257;73992;-24
2023/03/21 05:11:11;;;;;;;26.90;15.40;;;;;;;6.39;77.38;98505.36;105530;1258;62214;-24
2023/03/21 05:13:40;;;;;;;20.30;11.70;;;;;;;6.36;77.50;98508.02;105610;1257;61174;-24
2023/03/21 05:16:09;;;;;;;20.10;11.60;;;;;;;6.96;77.33;98503.95;105667;1258;74894;-24
2023/03/21 05:18:41;;;;;;;23.30;13.90;;;;;;;7.76;75.23;98504.82;105580;1263;76238;-30
2023/03/21 05:21:17;;;;;;;21.50;13.60;;;;;;;8.12;74.06;98509.97;105559;1259;74133;-24
2023/03/21 05:23:53;;;;;;;24.00;15.30;;;;;;;8.14;73.21;98509.23;105619;1255;61694;-24
2023/03/21 05:26:21;;;;;;;23.50;15.50;;;;;;;8.02;73.18;98516.40;105599;1263;62100;-25
2023/03/21 05:28:57;;;;;;;28.00;15.50;;;;;;;7.86;73.62;98514.59;105657;1259;74493;-23
2023/03/21 05:31:25;;;;;;;21.40;15.10;;;;;;;7.78;74.62;98515.92;105691;1257;76023;-24
2023/03/21 05:34:04;;;;;;;26.80;17.30;;;;;;;7.79;74.67;98514.98;105616;1259;74242;-23
2023/03/21 05:36:35;;;;;;;18.50;12.00;;;;;;;7.81;75.02;98513.95;105597;1259;61205;-23
2023/03/21 05:39:05;;;;;;;21.40;13.70;;;;;;;8.47;74.92;98520.82;105586;1260;61798;-23
2023/03/21 05:41:35;;;;;;;32.40;14.50;;;;;;;9.16;72.21;98521.64;105528;1259;73913;-23
2023/03/21 05:44:04;;;;;;;28.90;16.10;;;;;;;9.22;70.99;98519.72;105550;1259;75928;-23
2023/03/21 05:46:37;;;;;;;26.10;16.40;;;;;;;9.07;71.40;98523.36;105604;1264;73866;-23
2023/03/21 05:49:06;;;;;;;24.20;16.50;;;;;;;8.91;72.65;98523.33;105306;1257;61778;-23
2023/03/21 05:51:35;;;;;;;27.00;16.70;;;;;;;8.82;72.97;98524.39;105324;1257;60985;-23
2023/03/21 05:54:03;;;;;;;23.30;15.30;;;;;;;8.56;74.25;98526.55;105464;1257;75704;-23
2023/03/21 05:56:33;;;;;;;25.10;16.20;;;;;;;8.27;75.03;98530.20;105462;1261;76412;-24
2023/03/21 05:59:06;;;;;;;19.90;13.30;;;;;;;8.15;76.16;98533.58;105283;1259;74272;-23
2023/03/21 06:01:39;;;;;;;24.70;15.10;;;;;;;8.56;75.79;98540.71;105549;1257;61839;-24
2023/03/21 06:04:09;;;;;;;25.50;15.10;;;;;;;8.91;74.12;98536.48;105303;1257;61081;-23
2023/03/21 06:06:39;;;;;;;23.90;14.40;;;;;;;8.93;73.60;98535.13;105382;1260;75406;-23
2023/03/21 06:09:09;;;;;;;24.10;15.90;;;;;;;8.77;74.07;98533.27;105635;1259;75025;-23
2023/03/21 06:11:40;;;;;;;21.20;15.00;;;;;;;8.64;75.10;98536.23;105617;1257;74238;-23
2023/03/21 06:14:31;;;;;;;24.80;15.70;;;;;;;8.46;75.73;98538.02;105418;1262;62198;-23
2023/03/21 06:17:15;;;;;;;;;;;;;;;8.33;76.44;98542.35;105660;1260;61909;-23
2023/03/21 06:19:48;;;;;;;22.70;14.30;;;;;;;8.14;77.25;98536.36;105658;1260;75638;-25
2023/03/21 06:22:31;;;;;;;22.70;12.50;;;;;;;8.23;77.11;98538.80;105677;1260;76109;-23
2023/03/21 06:25:02;;;;;;;24.50;14.70;;;;;;;8.67;75.42;98533.94;105441;1260;72892;-23
2023/03/21 06:27:31;;;;;;;21.40;15.80;;;;;;;8.75;74.92;98537.94;105228;1263;61942;-23
2023/03/21 06:30:07;;;;;;;22.40;14.80;;;;;;;8.62;74.85;98540.54;105240;1267;61559;-23
2023/03/21 06:32:43;;;;;;;25.40;16.00;;;;;;;8.43;75.68;98539.35;105455;1262;75358;-23
2023/03/21 06:35:14;;;;;;;25.40;16.10;;;;;;;8.28;76.18;98540.80;105627;1263;75781;-24
2023/03/21 06:37:44;;;;;;;27.10;16.30;;;;;;;8.16;76.91;98542.47;105629;1257;74432;-24
2023/03/21 06:40:13;;;;;;;18.10;12.80;;;;;;;8.06;77.40;98541.55;105531;1260;64160;-24
2023/03/21 06:42:42;;;;;;;23.20;13.20;;;;;;;8.52;76.31;98546.05;105624;1259;61818;-24
2023/03/21 06:45:11;;;;;;;26.40;14.90;;;;;;;8.96;75.16;98547.02;105852;1257;75345;-23
2023/03/21 06:47:40;;;;;;;21.60;13.80;;;;;;;9.05;74.30;98551.41;105646;1260;75905;-24
2023/03/21 06:50:18;;;;;;;21.40;14.80;;;;;;;8.94;74.82;98556.48;105826;1253;74173;-24
2023/03/21 06:52:48;;;;;;;24.50;16.00;;;;;;;8.82;74.84;98557.34;105845;1255;61919;-25
2023/03/21 06:55:18;;;;;;;21.50;14.80;;;;;;;8.68;75.61;98555.64;105725;1267;61927;-25
2023/03/21 06:57:46;;;;;;;24.10;15.90;;;;;;;8.55;75.99;98560.52;105670;1258;74125;-25
2023/03/21 07:00:17;;;;;;;19.30;12.30;;;;;;;8.51;76.41;98558.11;105670;1254;76090;-24
2023/03/21 07:02:55;;;;;;;21.30;13.20;;;;;;;9.02;75.96;98560.30;105672;1260;74035;-25
2023/03/21 07:05:26;;;;;;;21.80;13.30;;;;;;;9.51;73.55;98559.42;105834;1257;61242;-28
2023/03/21 07:07:54;;;;;;;21.70;14.20;;;;;;;9.56;73.18;98564.67;105719;1259;61845;-24
2023/03/21 07:10:24;;;;;;;23.70;14.60;;;;;;;9.46;73.07;98561.58;105651;1257;74335;-24
2023/03/21 07:12:59;;;;;;;27.30;15.50;;;;;;;9.26;73.65;98562.88;105717;1258;75134;-29
2023/03/21 07:15:52;;;;;;;19.90;13.60;;;;;;;9.07;74.80;98563.60;105630;1259;73958;-27
2023/03/21 07:18:20;;;;;;;28.20;17.50;;;;;;;9.00;75.30;98565.15;105669;1260;61944;-27
2023/03/21 07:20:49;;;;;;;18.70;11.00;;;;;;;8.95;75.68;98567.48;105656;1260;61845;-26
2023/03/21 07:23:28;;;;;;;25.50;13.20;;;;;;;9.58;75.51;98571.98;105471;1255;75205;-27
2023/03/21 07:25:56;;;;;;;24.30;15.20;;;;;;;10.10;73.29;98575.21;105836;1257;76340;-24
2023/03/21 07:28:25;;;;;;;18.80;13.40;;;;;;;10.14;73.12;98577.28;105608;1260;74097;-24
2023/03/21 07:31:00;;;;;;;23.60;15.60;;;;;;;9.97;73.18;98578.55;105642;1254;61939;-24
2023/03/21 07:33:29;;;;;;;26.70;16.40;;;;;;;9.88;73.18;98571.16;105530;1259;61234;-23
2023/03/21 07:35:59;;;;;;;24.40;16.80;;;;;;;9.54;74.62;98573.20;105791;1267;76061;-26
2023/03/21 07:38:35;;;;;;;25.10;16.30;;;;;;;9.34;75.52;98570.89;105705;1259;75836;-24
2023/03/21 07:41:05;;;;;;;24.40;17.50;;;;;;;9.09;76.92;98572.56;105843;1254;74184;-24
2023/03/21 07:43:34;;;;;;;24.80;15.10;;;;;;;9.47;76.81;98574.48;105691;1260;62335;-23
2023/03/21 07:46:09;;;;;;;24.90;15.10;;;;;;;10.12;73.21;98573.99;105881;1257;61833;-23
2023/03/21 07:48:39;;;;;;;24.30;17.10;;;;;;;10.36;71.99;98575.38;105803;1259;75324;-23
2023/03/21 07:51:08;;;;;;;24.30;16.90;;;;;;;10.29;72.10;98576.18;105707;1259;74734;-23
2023/03/21 07:53:40;;;;;;;24.70;16.80;;;;;;;10.31;72.07;98574.59;105687;1259;72985;-23
2023/03/21 07:56:09;;;;;;;36.80;18.50;;;;;;;10.26;72.89;98584.86;105501;1259;61656;-23
2023/03/21 07:58:43;;;;;;;21.90;15.90;;;;;;;9.98;74.06;98581.27;105626;1257;61099;-25
2023/03/21 08:01:13;;;;;;;25.40;18.50;;;;;;;10.06;73.74;98581.84;105611;1254;74978;-24
2023/03/21 08:03:42;;;;;;;23.20;16.30;;;;;;;9.72;74.60;98580.65;105640;1254;75878;-25
2023/03/21 08:06:11;;;;;;;20.00;12.90;;;;;;;9.50;75.68;98580.23;105668;1255;74245;-25
2023/03/21 08:08:40;;;;;;;22.70;14.70;;;;;;;9.93;74.56;98581.52;105638;1254;61916;-27
2023/03/21 08:11:09;;;;;;;24.40;16.00;;;;;;;10.39;73.01;98581.92;105611;1266;61789;-24
2023/03/21 08:13:39;;;;;;;22.20;15.10;;;;;;;10.58;71.84;98582.16;105644;1255;75243;-25
2023/03/21 08:16:08;;;;;;;23.30;15.70;;;;;;;10.59;72.29;98579.99;105640;1259;73922;-25
2023/03/21 08:18:43;;;;;;;23.80;16.80;;;;;;;10.46;72.38;98580.88;105834;1259;73990;-24
2023/03/21 08:21:12;;;;;;;23.70;15.40;;;;;;;10.26;72.73;98583.73;105881;1259;61959;-24
2023/03/21 08:23:40;;;;;;;22.60;15.50;;;;;;;9.92;74.14;98590.27;105768;1259;61485;-26
2023/03/21 08:26:17;;;;;;;19.70;14.60;;;;;;;9.61;75.35;98586.67;105708;1258;73451;-25
2023/03/21 08:28:45;;;;;;;21.40;13.40;;;;;;;9.46;76.43;98585.45;105827;1266;75900;-25
2023/03/21 08:31:14;;;;;;;17.70;12.10;;;;;;;10.08;74.60;98592.19;105810;1254;74662;-25
2023/03/21 08:33:43;;;;;;;19.60;14.20;;;;;;;10.72;72.22;98591.67;105769;1258;61892;-26
2023/03/21 08:36:12;;;;;;;17.90;13.60;;;;;;;10.54;71.13;98593.41;105825;1257;61645;-26
2023/03/21 08:38:44;;;;;;;24.30;15.30;;;;;;;10.48;72.30;98597.63;105775;1260;75065;-24
2023/03/21 08:41:14;;;;;;;21.20;14.90;;;;;;;10.33;72.26;98595.42;105742;1259;75112;-25
2023/03/21 08:43:43;;;;;;;23.90;15.70;;;;;;;10.19;73.32;98597.83;105411;1260;74118;-25
2023/03/21 08:46:12;;;;;;;23.30;16.80;;;;;;;10.03;73.95;98600.41;105780;1254;61982;-24
2023/03/21 08:48:41;;;;;;;19.10;14.90;;;;;;;9.80;74.57;98601.67;105829;1257;61575;-22
2023/03/21 08:51:10;;;;;;;18.60;14.00;;;;;;;9.72;75.60;98604.80;105562;1260;74380;-23
2023/03/21 08:53:40;;;;;;;23.40;14.90;;;;;;;10.03;75.02;98606.65;105647;1260;75797;-24
2023/03/21 08:56:10;;;;;;;21.30;15.00;;;;;;;10.17;74.64;98606.30;105517;1256;73908;-24
2023/03/21 08:58:38;;;;;;;25.20;16.80;;;;;;;9.93;75.78;98609.61;105429;1254;61878;-24
2023/03/21 09:01:10;;;;;;;25.40;16.40;;;;;;;9.66;77.80;98612.88;105702;1254;61869;-24
2023/03/21 09:03:39;;;;;;;25.00;16.30;;;;;;;9.36;79.68;98612.08;105814;1257;75337;-24
2023/03/21 09:06:13;;;;;;;23.70;15.90;;;;;;;9.21;79.39;98607.83;105819;1257;74827;-24
2023/03/21 09:08:42;;;;;;;19.10;12.50;;;;;;;9.22;79.98;98612.90;105592;1261;73912;-24
2023/03/21 09:11:10;;;;;;;21.20;15.00;;;;;;;9.53;79.00;98615.02;105774;1254;61638;-24
2023/03/21 09:13:43;;;;;;;22.70;15.60;;;;;;;9.69;79.04;98617.70;105574;1261;62329;-24
2023/03/21 09:16:12;;;;;;;21.20;13.90;;;;;;;9.55;79.38;98619.58;105856;1254;74130;-24
2023/03/21 09:18:49;;;;;;;21.10;14.70;;;;;;;9.25;80.67;98615.75;105725;1260;75829;-24
2023/03/21 09:21:19;;;;;;;22.50;16.70;;;;;;;9.13;81.46;98618.81;105685;1259;74042;-23
2023/03/21 09:23:51;;;;;;;19.00;12.10;;;;;;;8.98;82.94;98621.98;105629;1254;63569;-24
2023/03/21 09:26:20;;;;;;;23.20;14.10;;;;;;;9.37;82.28;98618.96;105684;1257;61999;-24
2023/03/21 09:28:49;;;;;;;20.10;13.60;;;;;;;9.61;80.54;98617.64;105705;1257;75337;-24
2023/03/21 09:31:21;;;;;;;22.40;15.50;;;;;;;9.50;81.11;98622.89;105717;1254;75800;-24
2023/03/21 09:33:51;;;;;;;22.70;14.70;;;;;;;9.27;81.48;98621.34;105812;1256;74173;-27
2023/03/21 09:36:23;;;;;;;21.70;15.30;;;;;;;9.00;82.83;98618.89;105597;1255;61209;-24
2023/03/21 09:38:53;;;;;;;19.30;14.70;;;;;;;8.77;84.44;98622.82;105653;1260;61784;-24
2023/03/21 09:41:22;;;;;;;20.30;15.10;;;;;;;9.14;84.10;98627.73;105291;1255;75488;-23
2023/03/21 09:44:12;;;;;;;20.30;14.70;;;;;;;9.54;82.17;98627.08;105867;1257;75368;-24
2023/03/21 09:47:09;;;;;;;20.60;14.20;;;;;;;9.49;81.71;98625.43;105691;1258;73307;-24
2023/03/21 09:49:43;;;;;;;24.40;16.40;;;;;;;9.12;82.90;98618.92;105650;1262;61985;-24
2023/03/21 09:52:22;;;;;;;25.70;17.20;;;;;;;9.01;84.48;98622.08;105683;1254;61830;-24
2023/03/21 09:54:51;;;;;;;17.20;12.30;;;;;;;8.97;84.61;98621.69;105653;1254;74320;-23
2023/03/21 09:57:40;;;;;;;21.20;15.00;;;;;;;9.61;82.90;98620.61;105652;1267;75931;-23
2023/03/21 10:00:19;;;;;;;19.50;14.70;;;;;;;10.06;81.22;98624.63;105703;1260;72945;-23
2023/03/21 10:02:52;;;;;;;23.60;14.60;;;;;;;10.03;81.20;98623.64;105743;1267;61609;-24
2023/03/21 10:05:29;;;;;;;27.00;18.30;;;;;;;9.62;81.39;98621.36;105859;1257;61994;-23
2023/03/21 10:08:21;;;;;;;25.00;17.80;;;;;;;9.42;82.30;98620.94;105483;1260;75577;-24
2023/03/21 10:11:00;;;;;;;19.30;13.80;;;;;;;9.37;83.58;98622.30;105608;1261;75906;-24
2023/03/21 10:13:33;;;;;;;18.40;14.30;;;;;;;9.85;81.50;98621.87;105695;1253;73906;-25
2023/03/21 10:16:13;;;;;;;21.70;14.30;;;;;;;10.30;79.84;98623.83;105517;1260;61506;-24
2023/03/21 10:18:42;;;;;;;25.20;16.60;;;;;;;9.98;80.83;98622.53;105596;1254;61125;-23
2023/03/21 10:21:15;;;;;;;25.40;17.90;;;;;;;10.02;80.53;98623.29;105603;1260;74638;-23
2023/03/21 10:24:05;;;;;;;23.90;17.40;;;;;;;9.77;82.39;98625.14;105638;1260;76045;-24
2023/03/21 10:26:33;;;;;;;26.60;16.30;;;;;;;9.85;81.66;98624.16;105563;1260;73165;-24
2023/03/21 10:29:02;;;;;;;22.50;15.00;;;;;;;9.99;81.78;98624.13;105512;1259;61930;-23
2023/03/21 10:31:31;;;;;;;24.60;17.00;;;;;;;10.65;79.39;98620.41;105471;1260;61915;-24
2023/03/21 10:34:12;;;;;;;22.40;15.10;;;;;;;10.88;78.60;98621.84;105684;1254;74296;-24
2023/03/21 10:36:41;;;;;;;25.60;15.70;;;;;;;10.57;78.26;98625.48;105722;1254;75538;-25
2023/03/21 10:39:27;;;;;;;24.30;16.30;;;;;;;10.58;78.97;98625.38;105689;1254;73837;-24
2023/03/21 10:41:55;;;;;;;18.00;13.50;;;;;;;10.85;78.19;98623.82;105681;1254;61119;-24
2023/03/21 10:44:32;;;;;;;19.90;14.90;;;;;;;10.66;77.82;98621.04;105882;1255;61055;-24
2023/03/21 10:47:08;;;;;;;17.20;12.10;;;;;;;10.70;77.28;98621.16;105716;1258;73324;-24
2023/03/21 10:49:37;;;;;;;16.30;12.60;;;;;;;11.19;76.08;98622.55;105694;1259;75547;-24
2023/03/21 10:52:26;;;;;;;18.90;14.00;;;;;;;11.25;75.94;98620.64;105717;1254;74334;-25
2023/03/21 10:55:16;;;;;;;19.10;13.30;;;;;;;11.23;76.68;98622.04;105697;1254;61113;-23
2023/03/21 10:57:47;;;;;;;19.30;14.10;;;;;;;10.96;76.93;98625.48;105565;1261;61880;-23
2023/03/21 11:00:21;;;;;;;22.00;16.30;;;;;;;10.78;77.22;98620.34;105661;1253;75719;-23
2023/03/21 11:03:04;;;;;;;17.90;13.40;;;;;;;10.59;77.78;98622.16;105585;1254;75649;-23
2023/03/21 11:05:38;;;;;;;15.80;11.90;;;;;;;10.69;78.45;98626.61;105504;1267;73164;-23
2023/03/21 11:08:16;;;;;;;20.10;14.40;;;;;;;11.05;76.78;98622.79;105708;1261;61142;-23
2023/03/21 11:10:59;;;;;;;19.50;15.20;;;;;;;11.06;76.34;98624.23;105571;1254;61167;-23
2023/03/21 11:13:42;;;;;;;21.20;14.30;;;;;;;11.01;76.60;98626.13;105538;1254;74788;-23
2023/03/21 11:16:24;;;;;;;21.60;15.70;;;;;;;10.85;77.23;98622.80;105649;1260;74333;-22
2023/03/21 11:18:59;;;;;;;18.70;13.90;;;;;;;10.61;78.96;98626.33;105702;1254;74270;-23
2023/03/21 11:21:34;;;;;;;16.30;10.80;;;;;;;10.63;78.53;98621.79;105685;1260;63196;-24
2023/03/21 11:24:03;;;;;;;18.00;12.60;;;;;;;11.25;76.90;98620.13;105437;1260;61161;-24
2023/03/21 11:26:37;;;;;;;17.30;12.20;;;;;;;11.63;74.53;98619.77;105707;1254;75479;-23
2023/03/21 11:29:35;;;;;;;18.10;13.50;;;;;;;11.69;73.96;98612.92;105701;1254;75866;-23
2023/03/21 11:32:31;;;;;;;16.90;13.80;;;;;;;11.23;75.33;98613.56;105893;1254;74183;-24
2023/03/21 11:35:02;;;;;;;21.30;13.20;;;;;;;11.22;75.27;98611.04;105609;1254;61093;-24
2023/03/21 11:37:41;;;;;;;14.30;10.40;;;;;;;11.09;75.92;98612.84;105379;1259;61719;-24
2023/03/21 11:40:51;;;;;;;16.80;12.70;;;;;;;10.87;76.67;98613.95;105611;1254;75363;-24
2023/03/21 11:43:19;;;;;;;14.70;9.80;;;;;;;11.02;76.58;98612.67;105234;1260;74768;-25
2023/03/21 11:46:21;;;;;;;13.60;10.40;;;;;;;11.57;74.70;98607.43;105178;1261;73219;-24
2023/03/21 11:48:50;;;;;;;19.60;13.00;;;;;;;11.92;73.30;98607.20;105122;1261;61894;-24
2023/03/21 11:51:46;;;;;;;19.00;12.00;;;;;;;11.53;74.47;98604.86;105152;1264;61839;-25
2023/03/21 11:54:30;;;;;;;14.90;11.10;;;;;;;11.46;74.66;98603.77;105096;1260;75380;-25
2023/03/21 11:57:05;;;;;;;13.60;10.50;;;;;;;11.27;75.33;98605.05;105118;1263;76206;-25